Portada
METAR-TAF:

METAR-TAF

Aeropuertos :

Aeropuerto de Svalbard

Longyearbyen, Noruega

latitud: 78-15N, longitud: 015-28E, altitud: 2 m

Observación

El informe se hizo hace 18 minutos, a las 19:50 UTC
Viento 3 kt del este-sureste
Temperatura 7°C
Humedad 87%
Presión 1010 hPa
Visibilidad 10 km o más
Escasas nubes a una altura de 1200 ft
Cielo nuboso a una altura de 2200 ft

METAR: ENSB 151950Z 11003KT 9999 FEW012 BKN022 07/05 Q1010 RMK WIND 1400FT VRB02KT

Hora: 22:08 (20:08 UTC)

Pronóstico

El informe se hizo hace 3 horas y 8 minutos, a las 17:00 UTC
Pronóstico válido del 15 a las 18 UTC al 16 a las 18 UTC
Viento 8 kt del oeste-suroeste
Visibilidad 10 km o más
Escasas nubes a una altura de 800 ft
Cielo nuboso a una altura de 2500 ft
Temporalmente
del 15 a las 18 UTC al 16 a las 09 UTC
Cielo nuboso a una altura de 800 ft

TAF: ENSB 151700Z 1518/1618 24008KT 9999 FEW008 BKN025 TEMPO 1518/1609 BKN008

Observaciones y pronósticos meteorológicos de más de 4000 aeropuertos (mensajes METAR y TAF).

Los puntos amarillos y rojos representan las estaciones disponibles.

Ponga el ratón en el punto deseado para ver el nombre de la estación.

Haga clic para ver las observaciones y los pronósticos meteorológicos.

Para cambiar el mapa : haga clic en los botones verdes con una cruz de color negro para hacer un zoom, en el botón verde con un guión para alejar o en las flechas verdes para mapas adyacentes.


METAR-TAF: